sensor_id;sensor_type;location;lat;lon;timestamp;P1;durP1;ratioP1;P2;durP2;ratioP2
32812;SDS011;19162;48.254;11.454;2023-12-20T00:00:50;3.20;;;2.90;;
32812;SDS011;19162;48.254;11.454;2023-12-20T00:03:51;2.70;;;2.50;;
32812;SDS011;19162;48.254;11.454;2023-12-20T00:06:51;2.63;;;2.43;;
32812;SDS011;19162;48.254;11.454;2023-12-20T00:09:52;2.75;;;2.55;;
32812;SDS011;19162;48.254;11.454;2023-12-20T00:12:52;2.55;;;2.35;;
32812;SDS011;19162;48.254;11.454;2023-12-20T00:15:52;2.65;;;2.45;;
32812;SDS011;19162;48.254;11.454;2023-12-20T00:18:53;2.70;;;2.50;;
32812;SDS011;19162;48.254;11.454;2023-12-20T00:21:53;2.87;;;2.67;;
32812;SDS011;19162;48.254;11.454;2023-12-20T00:24:53;2.90;;;2.53;;
32812;SDS011;19162;48.254;11.454;2023-12-20T00:27:53;2.88;;;2.67;;
32812;SDS011;19162;48.254;11.454;2023-12-20T00:30:53;2.50;;;2.30;;
32812;SDS011;19162;48.254;11.454;2023-12-20T00:33:54;3.67;;;2.72;;
32812;SDS011;19162;48.254;11.454;2023-12-20T00:36:54;3.10;;;2.75;;
32812;SDS011;19162;48.254;11.454;2023-12-20T00:39:55;2.30;;;2.10;;
32812;SDS011;19162;48.254;11.454;2023-12-20T00:42:55;1.92;;;1.83;;
32812;SDS011;19162;48.254;11.454;2023-12-20T00:45:55;3.08;;;2.67;;
32812;SDS011;19162;48.254;11.454;2023-12-20T00:48:55;2.30;;;2.10;;
32812;SDS011;19162;48.254;11.454;2023-12-20T00:51:55;1.97;;;1.87;;
32812;SDS011;19162;48.254;11.454;2023-12-20T00:54:56;2.30;;;2.20;;
32812;SDS011;19162;48.254;11.454;2023-12-20T00:57:56;2.20;;;2.00;;
32812;SDS011;19162;48.254;11.454;2023-12-20T01:00:56;2.40;;;2.20;;
32812;SDS011;19162;48.254;11.454;2023-12-20T01:03:58;2.50;;;2.30;;
32812;SDS011;19162;48.254;11.454;2023-12-20T01:06:58;2.85;;;2.60;;
32812;SDS011;19162;48.254;11.454;2023-12-20T01:09:58;2.42;;;1.92;;
32812;SDS011;19162;48.254;11.454;2023-12-20T01:12:58;2.20;;;1.90;;
32812;SDS011;19162;48.254;11.454;2023-12-20T01:15:58;2.13;;;1.92;;
32812;SDS011;19162;48.254;11.454;2023-12-20T01:18:59;2.50;;;2.30;;
32812;SDS011;19162;48.254;11.454;2023-12-20T01:21:59;2.38;;;2.22;;
32812;SDS011;19162;48.254;11.454;2023-12-20T01:24:59;2.10;;;1.90;;
32812;SDS011;19162;48.254;11.454;2023-12-20T01:27:59;2.30;;;2.10;;
32812;SDS011;19162;48.254;11.454;2023-12-20T01:30:59;1.88;;;1.77;;
32812;SDS011;19162;48.254;11.454;2023-12-20T01:33:59;2.28;;;2.17;;
32812;SDS011;19162;48.254;11.454;2023-12-20T01:37:00;2.10;;;1.90;;
32812;SDS011;19162;48.254;11.454;2023-12-20T01:40:00;1.90;;;1.70;;
32812;SDS011;19162;48.254;11.454;2023-12-20T01:43:01;2.22;;;2.03;;
32812;SDS011;19162;48.254;11.454;2023-12-20T01:46:01;2.13;;;1.92;;
32812;SDS011;19162;48.254;11.454;2023-12-20T01:49:01;1.87;;;1.77;;
32812;SDS011;19162;48.254;11.454;2023-12-20T01:52:02;1.98;;;1.88;;
32812;SDS011;19162;48.254;11.454;2023-12-20T01:55:02;1.83;;;1.73;;
32812;SDS011;19162;48.254;11.454;2023-12-20T01:58:04;1.75;;;1.65;;
32812;SDS011;19162;48.254;11.454;2023-12-20T02:01:05;1.88;;;1.77;;
32812;SDS011;19162;48.254;11.454;2023-12-20T02:04:05;1.70;;;1.60;;
32812;SDS011;19162;48.254;11.454;2023-12-20T02:07:05;1.85;;;1.75;;
32812;SDS011;19162;48.254;11.454;2023-12-20T02:10:07;1.77;;;1.63;;
32812;SDS011;19162;48.254;11.454;2023-12-20T02:13:07;3.90;;;1.50;;
32812;SDS011;19162;48.254;11.454;2023-12-20T02:16:07;2.05;;;1.70;;
32812;SDS011;19162;48.254;11.454;2023-12-20T02:19:10;2.83;;;1.90;;
32812;SDS011;19162;48.254;11.454;2023-12-20T02:22:13;2.85;;;1.83;;
32812;SDS011;19162;48.254;11.454;2023-12-20T02:25:13;1.27;;;1.23;;
32812;SDS011;19162;48.254;11.454;2023-12-20T02:28:13;1.37;;;1.27;;
32812;SDS011;19162;48.254;11.454;2023-12-20T02:31:13;1.70;;;1.60;;
32812;SDS011;19162;48.254;11.454;2023-12-20T02:34:13;1.48;;;1.38;;
32812;SDS011;19162;48.254;11.454;2023-12-20T02:37:14;1.47;;;1.37;;
32812;SDS011;19162;48.254;11.454;2023-12-20T02:40:14;1.58;;;1.48;;
32812;SDS011;19162;48.254;11.454;2023-12-20T02:43:14;1.77;;;1.67;;
32812;SDS011;19162;48.254;11.454;2023-12-20T02:46:14;1.50;;;1.40;;
32812;SDS011;19162;48.254;11.454;2023-12-20T02:49:15;1.50;;;1.40;;
32812;SDS011;19162;48.254;11.454;2023-12-20T02:52:15;1.50;;;1.40;;
32812;SDS011;19162;48.254;11.454;2023-12-20T02:55:15;1.27;;;1.17;;
32812;SDS011;19162;48.254;11.454;2023-12-20T02:58:15;1.20;;;1.10;;
32812;SDS011;19162;48.254;11.454;2023-12-20T03:01:17;1.70;;;1.02;;
32812;SDS011;19162;48.254;11.454;2023-12-20T03:04:17;1.23;;;1.13;;
32812;SDS011;19162;48.254;11.454;2023-12-20T03:07:18;1.05;;;1.00;;
32812;SDS011;19162;48.254;11.454;2023-12-20T03:10:18;1.20;;;1.10;;
32812;SDS011;19162;48.254;11.454;2023-12-20T03:13:18;0.98;;;0.98;;
32812;SDS011;19162;48.254;11.454;2023-12-20T03:16:19;2.53;;;1.00;;
32812;SDS011;19162;48.254;11.454;2023-12-20T03:19:19;1.30;;;1.20;;
32812;SDS011;19162;48.254;11.454;2023-12-20T03:22:19;1.37;;;1.27;;
32812;SDS011;19162;48.254;11.454;2023-12-20T03:25:20;1.23;;;1.13;;
32812;SDS011;19162;48.254;11.454;2023-12-20T03:28:20;0.83;;;0.83;;
32812;SDS011;19162;48.254;11.454;2023-12-20T03:31:20;1.03;;;0.93;;
32812;SDS011;19162;48.254;11.454;2023-12-20T03:34:21;1.30;;;1.20;;
32812;SDS011;19162;48.254;11.454;2023-12-20T03:37:21;1.10;;;1.07;;
32812;SDS011;19162;48.254;11.454;2023-12-20T03:40:21;1.40;;;1.30;;
32812;SDS011;19162;48.254;11.454;2023-12-20T03:43:22;0.98;;;0.98;;
32812;SDS011;19162;48.254;11.454;2023-12-20T03:46:22;1.23;;;1.15;;
32812;SDS011;19162;48.254;11.454;2023-12-20T03:49:22;1.63;;;1.20;;
32812;SDS011;19162;48.254;11.454;2023-12-20T03:52:22;1.33;;;1.20;;
32812;SDS011;19162;48.254;11.454;2023-12-20T03:55:23;1.80;;;1.70;;
32812;SDS011;19162;48.254;11.454;2023-12-20T03:58:23;1.75;;;1.65;;
32812;SDS011;19162;48.254;11.454;2023-12-20T04:01:23;1.55;;;1.40;;
32812;SDS011;19162;48.254;11.454;2023-12-20T04:04:23;1.33;;;1.23;;
32812;SDS011;19162;48.254;11.454;2023-12-20T04:07:23;1.50;;;1.40;;
32812;SDS011;19162;48.254;11.454;2023-12-20T04:10:23;1.67;;;1.50;;
32812;SDS011;19162;48.254;11.454;2023-12-20T04:13:23;1.15;;;1.15;;
32812;SDS011;19162;48.254;11.454;2023-12-20T04:16:24;1.67;;;1.57;;
32812;SDS011;19162;48.254;11.454;2023-12-20T04:19:24;1.80;;;1.70;;
32812;SDS011;19162;48.254;11.454;2023-12-20T04:22:24;1.70;;;1.60;;
32812;SDS011;19162;48.254;11.454;2023-12-20T04:25:24;1.40;;;1.30;;
32812;SDS011;19162;48.254;11.454;2023-12-20T04:28:24;1.63;;;1.52;;
32812;SDS011;19162;48.254;11.454;2023-12-20T04:31:25;1.42;;;1.33;;
32812;SDS011;19162;48.254;11.454;2023-12-20T04:34:25;1.73;;;1.63;;
32812;SDS011;19162;48.254;11.454;2023-12-20T04:37:25;1.63;;;1.52;;
32812;SDS011;19162;48.254;11.454;2023-12-20T04:40:26;1.95;;;1.85;;
32812;SDS011;19162;48.254;11.454;2023-12-20T04:43:26;1.75;;;1.65;;
32812;SDS011;19162;48.254;11.454;2023-12-20T04:46:26;1.95;;;1.85;;
32812;SDS011;19162;48.254;11.454;2023-12-20T04:49:26;2.10;;;1.90;;
32812;SDS011;19162;48.254;11.454;2023-12-20T04:52:26;2.97;;;2.20;;
32812;SDS011;19162;48.254;11.454;2023-12-20T04:55:26;2.55;;;2.35;;
32812;SDS011;19162;48.254;11.454;2023-12-20T04:58:27;2.40;;;2.30;;
32812;SDS011;19162;48.254;11.454;2023-12-20T05:01:27;2.50;;;2.30;;
32812;SDS011;19162;48.254;11.454;2023-12-20T05:04:27;2.17;;;1.98;;
32812;SDS011;19162;48.254;11.454;2023-12-20T05:07:27;2.42;;;2.25;;
32812;SDS011;19162;48.254;11.454;2023-12-20T05:10:27;2.47;;;2.33;;
32812;SDS011;19162;48.254;11.454;2023-12-20T05:13:28;2.97;;;2.53;;
32812;SDS011;19162;48.254;11.454;2023-12-20T05:16:28;2.75;;;2.55;;
32812;SDS011;19162;48.254;11.454;2023-12-20T05:19:28;2.65;;;2.45;;
32812;SDS011;19162;48.254;11.454;2023-12-20T05:22:28;2.70;;;2.50;;
32812;SDS011;19162;48.254;11.454;2023-12-20T05:25:28;2.90;;;2.70;;
32812;SDS011;19162;48.254;11.454;2023-12-20T05:28:29;2.80;;;2.60;;
32812;SDS011;19162;48.254;11.454;2023-12-20T05:31:29;3.10;;;2.90;;
32812;SDS011;19162;48.254;11.454;2023-12-20T05:34:29;3.55;;;3.25;;
32812;SDS011;19162;48.254;11.454;2023-12-20T05:37:29;3.58;;;3.28;;
32812;SDS011;19162;48.254;11.454;2023-12-20T05:40:29;3.85;;;3.50;;
32812;SDS011;19162;48.254;11.454;2023-12-20T05:43:29;3.72;;;3.42;;
32812;SDS011;19162;48.254;11.454;2023-12-20T05:46:30;4.38;;;3.97;;
32812;SDS011;19162;48.254;11.454;2023-12-20T05:49:30;3.72;;;3.42;;
32812;SDS011;19162;48.254;11.454;2023-12-20T05:52:30;3.80;;;3.50;;
32812;SDS011;19162;48.254;11.454;2023-12-20T05:55:30;3.20;;;3.00;;
32812;SDS011;19162;48.254;11.454;2023-12-20T05:58:31;4.32;;;3.53;;
32812;SDS011;19162;48.254;11.454;2023-12-20T06:01:32;3.50;;;3.17;;
32812;SDS011;19162;48.254;11.454;2023-12-20T06:04:32;3.63;;;3.33;;
32812;SDS011;19162;48.254;11.454;2023-12-20T06:07:32;3.50;;;3.30;;
32812;SDS011;19162;48.254;11.454;2023-12-20T06:10:32;3.17;;;2.97;;
32812;SDS011;19162;48.254;11.454;2023-12-20T06:13:32;3.60;;;3.30;;
32812;SDS011;19162;48.254;11.454;2023-12-20T06:16:33;3.47;;;3.27;;
32812;SDS011;19162;48.254;11.454;2023-12-20T06:19:33;3.15;;;2.95;;
32812;SDS011;19162;48.254;11.454;2023-12-20T06:22:34;2.90;;;2.70;;
32812;SDS011;19162;48.254;11.454;2023-12-20T06:25:34;3.45;;;3.15;;
32812;SDS011;19162;48.254;11.454;2023-12-20T06:28:34;2.87;;;2.67;;
32812;SDS011;19162;48.254;11.454;2023-12-20T06:31:34;2.97;;;2.78;;
32812;SDS011;19162;48.254;11.454;2023-12-20T06:34:34;2.97;;;2.78;;
32812;SDS011;19162;48.254;11.454;2023-12-20T06:37:35;3.40;;;3.17;;
32812;SDS011;19162;48.254;11.454;2023-12-20T06:40:35;3.03;;;2.83;;
32812;SDS011;19162;48.254;11.454;2023-12-20T06:43:35;3.45;;;3.25;;
32812;SDS011;19162;48.254;11.454;2023-12-20T06:46:35;3.05;;;2.85;;
32812;SDS011;19162;48.254;11.454;2023-12-20T06:49:35;3.08;;;2.88;;
32812;SDS011;19162;48.254;11.454;2023-12-20T06:52:35;3.38;;;3.17;;
32812;SDS011;19162;48.254;11.454;2023-12-20T06:55:36;3.07;;;2.87;;
32812;SDS011;19162;48.254;11.454;2023-12-20T06:58:37;3.30;;;3.03;;
32812;SDS011;19162;48.254;11.454;2023-12-20T07:01:38;3.42;;;3.15;;
32812;SDS011;19162;48.254;11.454;2023-12-20T07:04:41;3.33;;;3.10;;
32812;SDS011;19162;48.254;11.454;2023-12-20T07:10:41;3.00;;;2.80;;
32812;SDS011;19162;48.254;11.454;2023-12-20T07:13:41;3.30;;;3.10;;
32812;SDS011;19162;48.254;11.454;2023-12-20T07:16:42;2.70;;;2.50;;
32812;SDS011;19162;48.254;11.454;2023-12-20T07:19:42;2.70;;;2.50;;
32812;SDS011;19162;48.254;11.454;2023-12-20T07:22:42;2.47;;;2.30;;
32812;SDS011;19162;48.254;11.454;2023-12-20T07:25:42;2.47;;;2.27;;
32812;SDS011;19162;48.254;11.454;2023-12-20T07:28:42;3.00;;;2.80;;
32812;SDS011;19162;48.254;11.454;2023-12-20T07:31:42;2.47;;;2.27;;
32812;SDS011;19162;48.254;11.454;2023-12-20T07:34:43;2.78;;;2.58;;
32812;SDS011;19162;48.254;11.454;2023-12-20T07:37:43;2.90;;;2.70;;
32812;SDS011;19162;48.254;11.454;2023-12-20T07:40:44;2.85;;;2.65;;
32812;SDS011;19162;48.254;11.454;2023-12-20T07:43:44;3.70;;;2.15;;
32812;SDS011;19162;48.254;11.454;2023-12-20T07:46:45;2.25;;;2.15;;
32812;SDS011;19162;48.254;11.454;2023-12-20T07:49:45;2.10;;;2.00;;
32812;SDS011;19162;48.254;11.454;2023-12-20T07:52:45;2.08;;;1.95;;
32812;SDS011;19162;48.254;11.454;2023-12-20T07:55:45;2.10;;;1.90;;
32812;SDS011;19162;48.254;11.454;2023-12-20T07:58:46;2.03;;;1.75;;
32812;SDS011;19162;48.254;11.454;2023-12-20T08:01:46;1.60;;;1.50;;
32812;SDS011;19162;48.254;11.454;2023-12-20T08:04:46;1.52;;;1.42;;
32812;SDS011;19162;48.254;11.454;2023-12-20T08:07:46;1.30;;;1.20;;
32812;SDS011;19162;48.254;11.454;2023-12-20T08:10:47;1.33;;;1.23;;
32812;SDS011;19162;48.254;11.454;2023-12-20T08:13:47;1.52;;;1.25;;
32812;SDS011;19162;48.254;11.454;2023-12-20T08:16:47;2.15;;;1.58;;
32812;SDS011;19162;48.254;11.454;2023-12-20T08:19:47;1.20;;;1.20;;
32812;SDS011;19162;48.254;11.454;2023-12-20T08:22:47;1.37;;;1.27;;
32812;SDS011;19162;48.254;11.454;2023-12-20T08:25:47;1.33;;;1.23;;
32812;SDS011;19162;48.254;11.454;2023-12-20T08:28:49;1.10;;;1.10;;
32812;SDS011;19162;48.254;11.454;2023-12-20T08:31:52;1.52;;;1.10;;
32812;SDS011;19162;48.254;11.454;2023-12-20T08:34:53;1.35;;;1.25;;
32812;SDS011;19162;48.254;11.454;2023-12-20T08:37:53;1.60;;;1.50;;
32812;SDS011;19162;48.254;11.454;2023-12-20T08:40:53;1.50;;;1.40;;
32812;SDS011;19162;48.254;11.454;2023-12-20T08:43:53;1.20;;;1.20;;
32812;SDS011;19162;48.254;11.454;2023-12-20T08:46:53;1.37;;;1.27;;
32812;SDS011;19162;48.254;11.454;2023-12-20T08:49:57;1.60;;;1.50;;
32812;SDS011;19162;48.254;11.454;2023-12-20T08:52:59;1.45;;;1.35;;
32812;SDS011;19162;48.254;11.454;2023-12-20T08:56:00;1.63;;;1.52;;
32812;SDS011;19162;48.254;11.454;2023-12-20T08:59:01;1.67;;;1.58;;
32812;SDS011;19162;48.254;11.454;2023-12-20T09:02:01;1.80;;;1.70;;
32812;SDS011;19162;48.254;11.454;2023-12-20T09:05:02;1.90;;;1.80;;
32812;SDS011;19162;48.254;11.454;2023-12-20T09:08:02;2.03;;;1.92;;
32812;SDS011;19162;48.254;11.454;2023-12-20T09:11:02;2.30;;;2.10;;
32812;SDS011;19162;48.254;11.454;2023-12-20T09:14:02;2.43;;;2.23;;
32812;SDS011;19162;48.254;11.454;2023-12-20T09:17:03;1.98;;;1.77;;
32812;SDS011;19162;48.254;11.454;2023-12-20T09:20:03;3.17;;;1.70;;
32812;SDS011;19162;48.254;11.454;2023-12-20T09:23:06;1.95;;;1.85;;
32812;SDS011;19162;48.254;11.454;2023-12-20T09:26:07;1.95;;;1.85;;
32812;SDS011;19162;48.254;11.454;2023-12-20T09:29:07;1.55;;;1.45;;
32812;SDS011;19162;48.254;11.454;2023-12-20T09:32:09;2.63;;;1.83;;
32812;SDS011;19162;48.254;11.454;2023-12-20T09:35:09;2.10;;;2.00;;
32812;SDS011;19162;48.254;11.454;2023-12-20T09:38:09;2.00;;;1.90;;
32812;SDS011;19162;48.254;11.454;2023-12-20T09:41:10;1.95;;;1.85;;
32812;SDS011;19162;48.254;11.454;2023-12-20T09:44:15;2.80;;;1.77;;
32812;SDS011;19162;48.254;11.454;2023-12-20T09:47:15;2.08;;;1.98;;
32812;SDS011;19162;48.254;11.454;2023-12-20T09:50:22;2.08;;;1.98;;
32812;SDS011;19162;48.254;11.454;2023-12-20T09:53:22;2.20;;;2.00;;
32812;SDS011;19162;48.254;11.454;2023-12-20T09:56:23;1.80;;;1.70;;
32812;SDS011;19162;48.254;11.454;2023-12-20T09:59:24;1.90;;;1.80;;
32812;SDS011;19162;48.254;11.454;2023-12-20T10:02:25;2.60;;;1.93;;
32812;SDS011;19162;48.254;11.454;2023-12-20T10:05:32;1.52;;;1.42;;
32812;SDS011;19162;48.254;11.454;2023-12-20T10:08:33;1.98;;;1.88;;
32812;SDS011;19162;48.254;11.454;2023-12-20T10:11:34;1.70;;;1.60;;
32812;SDS011;19162;48.254;11.454;2023-12-20T10:14:34;2.20;;;2.10;;
32812;SDS011;19162;48.254;11.454;2023-12-20T10:17:35;2.13;;;2.03;;
32812;SDS011;19162;48.254;11.454;2023-12-20T10:20:35;2.22;;;2.13;;
32812;SDS011;19162;48.254;11.454;2023-12-20T10:23:35;2.43;;;2.20;;
32812;SDS011;19162;48.254;11.454;2023-12-20T10:26:36;2.35;;;2.25;;
32812;SDS011;19162;48.254;11.454;2023-12-20T10:29:37;2.08;;;1.98;;
32812;SDS011;19162;48.254;11.454;2023-12-20T10:32:38;2.45;;;2.25;;
32812;SDS011;19162;48.254;11.454;2023-12-20T10:35:39;2.05;;;1.95;;
32812;SDS011;19162;48.254;11.454;2023-12-20T10:38:39;2.33;;;2.15;;
32812;SDS011;19162;48.254;11.454;2023-12-20T10:41:42;2.00;;;1.90;;
32812;SDS011;19162;48.254;11.454;2023-12-20T10:44:43;1.98;;;1.88;;
32812;SDS011;19162;48.254;11.454;2023-12-20T10:47:45;2.10;;;2.00;;
32812;SDS011;19162;48.254;11.454;2023-12-20T10:50:46;2.20;;;2.00;;
32812;SDS011;19162;48.254;11.454;2023-12-20T10:53:47;2.17;;;2.08;;
32812;SDS011;19162;48.254;11.454;2023-12-20T10:56:48;1.75;;;1.65;;
32812;SDS011;19162;48.254;11.454;2023-12-20T10:59:51;1.95;;;1.70;;
32812;SDS011;19162;48.254;11.454;2023-12-20T11:02:53;1.83;;;1.73;;
32812;SDS011;19162;48.254;11.454;2023-12-20T11:05:58;2.40;;;2.20;;
32812;SDS011;19162;48.254;11.454;2023-12-20T11:12:21;1.83;;;1.73;;
32812;SDS011;19162;48.254;11.454;2023-12-20T11:15:23;2.20;;;2.08;;
32812;SDS011;19162;48.254;11.454;2023-12-20T11:18:31;2.05;;;1.95;;
32812;SDS011;19162;48.254;11.454;2023-12-20T11:21:31;2.55;;;2.35;;
32812;SDS011;19162;48.254;11.454;2023-12-20T11:24:31;1.80;;;1.70;;
32812;SDS011;19162;48.254;11.454;2023-12-20T11:27:35;3.25;;;1.70;;
32812;SDS011;19162;48.254;11.454;2023-12-20T11:30:43;1.58;;;1.48;;
32812;SDS011;19162;48.254;11.454;2023-12-20T11:33:45;1.63;;;1.50;;
32812;SDS011;19162;48.254;11.454;2023-12-20T11:36:48;1.70;;;1.60;;
32812;SDS011;19162;48.254;11.454;2023-12-20T11:39:56;1.70;;;1.60;;
32812;SDS011;19162;48.254;11.454;2023-12-20T11:42:56;1.35;;;1.25;;
32812;SDS011;19162;48.254;11.454;2023-12-20T11:45:59;1.90;;;1.80;;
32812;SDS011;19162;48.254;11.454;2023-12-20T11:49:02;1.88;;;1.77;;
32812;SDS011;19162;48.254;11.454;2023-12-20T11:52:03;1.40;;;1.30;;
32812;SDS011;19162;48.254;11.454;2023-12-20T11:55:03;1.60;;;1.50;;
32812;SDS011;19162;48.254;11.454;2023-12-20T11:58:04;1.63;;;1.52;;
32812;SDS011;19162;48.254;11.454;2023-12-20T12:01:04;1.60;;;1.50;;
32812;SDS011;19162;48.254;11.454;2023-12-20T12:04:07;1.83;;;1.33;;
32812;SDS011;19162;48.254;11.454;2023-12-20T12:07:07;1.03;;;1.03;;
32812;SDS011;19162;48.254;11.454;2023-12-20T12:10:07;1.60;;;1.50;;
32812;SDS011;19162;48.254;11.454;2023-12-20T12:13:08;1.88;;;1.77;;
32812;SDS011;19162;48.254;11.454;2023-12-20T12:16:08;1.60;;;1.50;;
32812;SDS011;19162;48.254;11.454;2023-12-20T12:19:20;1.60;;;1.50;;
32812;SDS011;19162;48.254;11.454;2023-12-20T12:22:20;1.92;;;1.83;;
32812;SDS011;19162;48.254;11.454;2023-12-20T12:25:25;1.48;;;1.38;;
32812;SDS011;19162;48.254;11.454;2023-12-20T12:28:26;2.00;;;1.77;;
32812;SDS011;19162;48.254;11.454;2023-12-20T12:31:28;1.80;;;1.70;;
32812;SDS011;19162;48.254;11.454;2023-12-20T12:34:28;1.80;;;1.70;;
32812;SDS011;19162;48.254;11.454;2023-12-20T12:37:28;1.50;;;1.40;;
32812;SDS011;19162;48.254;11.454;2023-12-20T12:40:29;1.77;;;1.67;;
32812;SDS011;19162;48.254;11.454;2023-12-20T12:43:29;1.75;;;1.65;;
32812;SDS011;19162;48.254;11.454;2023-12-20T12:46:29;1.65;;;1.55;;
32812;SDS011;19162;48.254;11.454;2023-12-20T12:49:30;1.60;;;1.50;;
32812;SDS011;19162;48.254;11.454;2023-12-20T12:52:30;1.87;;;1.77;;
32812;SDS011;19162;48.254;11.454;2023-12-20T12:55:30;2.58;;;1.42;;
32812;SDS011;19162;48.254;11.454;2023-12-20T12:58:30;1.45;;;1.35;;
32812;SDS011;19162;48.254;11.454;2023-12-20T13:01:31;2.17;;;2.00;;
32812;SDS011;19162;48.254;11.454;2023-12-20T13:04:31;3.20;;;2.88;;
32812;SDS011;19162;48.254;11.454;2023-12-20T13:07:31;2.03;;;1.80;;
32812;SDS011;19162;48.254;11.454;2023-12-20T13:10:32;3.13;;;1.95;;
32812;SDS011;19162;48.254;11.454;2023-12-20T13:13:32;1.67;;;1.58;;
32812;SDS011;19162;48.254;11.454;2023-12-20T13:16:33;2.07;;;1.73;;
32812;SDS011;19162;48.254;11.454;2023-12-20T13:19:34;5.93;;;5.43;;
32812;SDS011;19162;48.254;11.454;2023-12-20T13:22:35;2.35;;;1.92;;
32812;SDS011;19162;48.254;11.454;2023-12-20T13:25:35;1.83;;;1.73;;
32812;SDS011;19162;48.254;11.454;2023-12-20T13:28:36;2.53;;;1.40;;
32812;SDS011;19162;48.254;11.454;2023-12-20T13:31:36;2.63;;;1.70;;
32812;SDS011;19162;48.254;11.454;2023-12-20T13:34:37;2.00;;;1.80;;
32812;SDS011;19162;48.254;11.454;2023-12-20T13:37:38;2.92;;;1.90;;
32812;SDS011;19162;48.254;11.454;2023-12-20T13:40:38;3.22;;;1.98;;
32812;SDS011;19162;48.254;11.454;2023-12-20T13:43:39;3.97;;;1.73;;
32812;SDS011;19162;48.254;11.454;2023-12-20T13:46:40;6.50;;;3.23;;
32812;SDS011;19162;48.254;11.454;2023-12-20T13:49:40;3.30;;;3.00;;
32812;SDS011;19162;48.254;11.454;2023-12-20T13:52:40;2.72;;;2.53;;
32812;SDS011;19162;48.254;11.454;2023-12-20T13:55:40;3.77;;;2.17;;
32812;SDS011;19162;48.254;11.454;2023-12-20T13:58:41;2.83;;;1.53;;
32812;SDS011;19162;48.254;11.454;2023-12-20T14:01:46;3.90;;;1.75;;
32812;SDS011;19162;48.254;11.454;2023-12-20T14:04:46;5.57;;;1.83;;
32812;SDS011;19162;48.254;11.454;2023-12-20T14:07:46;4.57;;;1.90;;
32812;SDS011;19162;48.254;11.454;2023-12-20T14:10:47;3.83;;;1.87;;
32812;SDS011;19162;48.254;11.454;2023-12-20T14:13:47;3.70;;;1.92;;
32812;SDS011;19162;48.254;11.454;2023-12-20T14:16:47;2.42;;;1.48;;
32812;SDS011;19162;48.254;11.454;2023-12-20T14:19:47;5.13;;;1.83;;
32812;SDS011;19162;48.254;11.454;2023-12-20T14:22:47;4.50;;;2.30;;
32812;SDS011;19162;48.254;11.454;2023-12-20T14:25:48;3.67;;;1.90;;
32812;SDS011;19162;48.254;11.454;2023-12-20T14:28:49;2.92;;;2.40;;
32812;SDS011;19162;48.254;11.454;2023-12-20T14:31:49;2.28;;;1.50;;
32812;SDS011;19162;48.254;11.454;2023-12-20T14:34:49;2.75;;;2.33;;
32812;SDS011;19162;48.254;11.454;2023-12-20T14:37:50;4.63;;;1.77;;
32812;SDS011;19162;48.254;11.454;2023-12-20T14:40:50;2.53;;;1.67;;
32812;SDS011;19162;48.254;11.454;2023-12-20T14:43:51;3.13;;;1.58;;
32812;SDS011;19162;48.254;11.454;2023-12-20T14:46:52;3.50;;;1.60;;
32812;SDS011;19162;48.254;11.454;2023-12-20T14:49:52;3.53;;;1.50;;
32812;SDS011;19162;48.254;11.454;2023-12-20T14:52:52;2.27;;;1.80;;
32812;SDS011;19162;48.254;11.454;2023-12-20T14:55:54;2.88;;;2.03;;
32812;SDS011;19162;48.254;11.454;2023-12-20T14:58:54;3.07;;;2.20;;
32812;SDS011;19162;48.254;11.454;2023-12-20T15:01:55;1.70;;;1.38;;
32812;SDS011;19162;48.254;11.454;2023-12-20T15:04:55;4.15;;;2.00;;
32812;SDS011;19162;48.254;11.454;2023-12-20T15:07:55;3.47;;;2.15;;
32812;SDS011;19162;48.254;11.454;2023-12-20T15:10:55;3.15;;;2.17;;
32812;SDS011;19162;48.254;11.454;2023-12-20T15:13:55;3.08;;;2.13;;
32812;SDS011;19162;48.254;11.454;2023-12-20T15:16:56;3.78;;;2.42;;
32812;SDS011;19162;48.254;11.454;2023-12-20T15:19:56;3.08;;;2.78;;
32812;SDS011;19162;48.254;11.454;2023-12-20T15:22:56;3.53;;;2.23;;
32812;SDS011;19162;48.254;11.454;2023-12-20T15:25:58;2.30;;;2.10;;
32812;SDS011;19162;48.254;11.454;2023-12-20T15:28:59;6.43;;;3.03;;
32812;SDS011;19162;48.254;11.454;2023-12-20T15:32:00;3.30;;;2.15;;
32812;SDS011;19162;48.254;11.454;2023-12-20T15:35:01;2.83;;;1.57;;
32812;SDS011;19162;48.254;11.454;2023-12-20T15:38:02;3.17;;;1.30;;
32812;SDS011;19162;48.254;11.454;2023-12-20T15:41:04;2.33;;;1.20;;
32812;SDS011;19162;48.254;11.454;2023-12-20T15:44:04;3.70;;;2.42;;
32812;SDS011;19162;48.254;11.454;2023-12-20T15:47:05;3.92;;;2.72;;
32812;SDS011;19162;48.254;11.454;2023-12-20T15:50:05;4.50;;;3.53;;
32812;SDS011;19162;48.254;11.454;2023-12-20T15:53:06;4.63;;;4.15;;
32812;SDS011;19162;48.254;11.454;2023-12-20T15:56:06;3.05;;;1.90;;
32812;SDS011;19162;48.254;11.454;2023-12-20T15:59:07;2.92;;;1.60;;
32812;SDS011;19162;48.254;11.454;2023-12-20T16:02:09;2.50;;;1.80;;
32812;SDS011;19162;48.254;11.454;2023-12-20T16:05:09;2.13;;;1.93;;
32812;SDS011;19162;48.254;11.454;2023-12-20T16:08:09;2.87;;;2.37;;
32812;SDS011;19162;48.254;11.454;2023-12-20T16:11:10;2.60;;;1.90;;
32812;SDS011;19162;48.254;11.454;2023-12-20T16:14:10;3.47;;;2.37;;
32812;SDS011;19162;48.254;11.454;2023-12-20T16:20:13;2.30;;;1.70;;
32812;SDS011;19162;48.254;11.454;2023-12-20T16:23:13;3.30;;;2.03;;
32812;SDS011;19162;48.254;11.454;2023-12-20T16:26:14;2.57;;;2.00;;
32812;SDS011;19162;48.254;11.454;2023-12-20T16:29:14;3.13;;;2.22;;
32812;SDS011;19162;48.254;11.454;2023-12-20T16:32:14;2.90;;;2.33;;
32812;SDS011;19162;48.254;11.454;2023-12-20T16:35:14;2.38;;;2.17;;
32812;SDS011;19162;48.254;11.454;2023-12-20T16:38:14;3.57;;;2.20;;
32812;SDS011;19162;48.254;11.454;2023-12-20T16:41:15;2.83;;;1.60;;
32812;SDS011;19162;48.254;11.454;2023-12-20T16:44:15;2.67;;;1.53;;
32812;SDS011;19162;48.254;11.454;2023-12-20T16:47:16;2.13;;;1.42;;
32812;SDS011;19162;48.254;11.454;2023-12-20T16:50:16;2.15;;;1.58;;
32812;SDS011;19162;48.254;11.454;2023-12-20T16:53:16;1.93;;;1.47;;
32812;SDS011;19162;48.254;11.454;2023-12-20T16:56:16;2.28;;;1.65;;
32812;SDS011;19162;48.254;11.454;2023-12-20T16:59:17;2.70;;;1.65;;
32812;SDS011;19162;48.254;11.454;2023-12-20T17:02:17;2.40;;;1.90;;
32812;SDS011;19162;48.254;11.454;2023-12-20T17:05:17;3.13;;;1.90;;
32812;SDS011;19162;48.254;11.454;2023-12-20T17:08:18;2.80;;;1.60;;
32812;SDS011;19162;48.254;11.454;2023-12-20T17:11:18;2.53;;;1.63;;
32812;SDS011;19162;48.254;11.454;2023-12-20T17:14:18;3.53;;;1.70;;
32812;SDS011;19162;48.254;11.454;2023-12-20T17:17:18;2.50;;;1.70;;
32812;SDS011;19162;48.254;11.454;2023-12-20T17:20:19;2.65;;;1.67;;
32812;SDS011;19162;48.254;11.454;2023-12-20T17:23:19;1.58;;;1.17;;
32812;SDS011;19162;48.254;11.454;2023-12-20T17:26:19;3.25;;;1.58;;
32812;SDS011;19162;48.254;11.454;2023-12-20T17:29:19;2.28;;;1.90;;
32812;SDS011;19162;48.254;11.454;2023-12-20T17:32:20;2.37;;;1.97;;
32812;SDS011;19162;48.254;11.454;2023-12-20T17:35:20;2.38;;;1.95;;
32812;SDS011;19162;48.254;11.454;2023-12-20T17:38:20;2.13;;;1.50;;
32812;SDS011;19162;48.254;11.454;2023-12-20T17:41:20;3.90;;;1.65;;
32812;SDS011;19162;48.254;11.454;2023-12-20T17:44:21;3.03;;;1.90;;
32812;SDS011;19162;48.254;11.454;2023-12-20T17:47:21;1.80;;;1.60;;
32812;SDS011;19162;48.254;11.454;2023-12-20T17:50:22;2.97;;;1.60;;
32812;SDS011;19162;48.254;11.454;2023-12-20T17:53:22;3.33;;;1.60;;
32812;SDS011;19162;48.254;11.454;2023-12-20T17:56:22;2.70;;;1.75;;
32812;SDS011;19162;48.254;11.454;2023-12-20T17:59:23;3.83;;;2.08;;